Time,TemperatureF,DewpointF,PressureIn,WindDirection,WindDirectionDegrees,WindSpeedMPH,WindSpeedGustMPH,Humidity,HourlyPrecipIn,Conditions,Clouds,dailyrainin,SoftwareType,DateUTC
2013-09-30 00:00:00,56.0,50.0,30.16,North,0,0.0,-999.0,79,-99.99,,,-99.99,,2013-09-30 00:00:00,
2013-09-30 00:42:00,56.0,50.0,30.16,North,0,0.0,-999.0,79,-99.99,,,-99.99,,2013-09-30 00:42:00,
2013-09-30 00:52:00,56.0,50.0,30.16,North,0,0.0,-999.0,79,-99.99,,,-99.99,,2013-09-30 00:52:00,
2013-09-30 01:00:00,56.0,50.0,30.17,West,260,3.0,-999.0,82,-99.99,,,-99.99,,2013-09-30 01:00:00,
2013-09-30 01:42:00,56.0,50.0,30.17,West,260,3.0,-999.0,82,-99.99,,,-99.99,,2013-09-30 01:42:00,
2013-09-30 01:52:00,56.0,50.0,30.17,West,260,3.0,-999.0,82,-99.99,,,-99.99,,2013-09-30 01:52:00,
2013-09-30 02:00:00,54.0,51.0,30.16,North,360,3.0,-999.0,88,-99.99,,,-99.99,,2013-09-30 02:00:00,
2013-09-30 02:42:00,54.0,51.0,30.16,North,360,3.0,-999.0,88,-99.99,,,-99.99,,2013-09-30 02:42:00,
2013-09-30 02:52:00,54.0,51.0,30.16,North,360,3.0,-999.0,88,-99.99,,,-99.99,,2013-09-30 02:52:00,
2013-09-30 03:00:00,53.0,51.0,30.15,NNW,330,1.0,-999.0,91,-99.99,,,-99.99,,2013-09-30 03:00:00,
2013-09-30 03:44:00,53.0,51.0,30.15,NNW,330,1.0,-999.0,91,-99.99,,,-99.99,,2013-09-30 03:44:00,
2013-09-30 03:55:00,53.0,51.0,30.15,NNW,330,1.0,-999.0,91,-99.99,,,-99.99,,2013-09-30 03:55:00,
2013-09-30 04:00:00,53.0,51.0,30.15,SSE,160,2.0,-999.0,91,-99.99,,,-99.99,,2013-09-30 04:00:00,
2013-09-30 04:44:00,53.0,51.0,30.15,SSE,160,2.0,-999.0,91,-99.99,,,-99.99,,2013-09-30 04:44:00,
2013-09-30 04:53:00,53.0,51.0,30.15,SSE,160,2.0,-999.0,91,-99.99,,,-99.99,,2013-09-30 04:53:00,
2013-09-30 05:00:00,53.0,51.0,30.14,NW,310,1.0,-999.0,90,-99.99,,,-99.99,,2013-09-30 05:00:00,
2013-09-30 05:43:00,53.0,51.0,30.14,NW,310,1.0,-999.0,90,-99.99,,,-99.99,,2013-09-30 05:43:00,
2013-09-30 05:52:00,53.0,51.0,30.14,NW,310,1.0,-999.0,90,-99.99,,,-99.99,,2013-09-30 05:52:00,
2013-09-30 06:00:00,50.0,49.0,30.13,WNW,300,2.0,-999.0,95,-99.99,,,-99.99,,2013-09-30 06:00:00,
2013-09-30 06:42:00,50.0,49.0,30.13,WNW,300,2.0,-999.0,95,-99.99,,,-99.99,,2013-09-30 06:42:00,
2013-09-30 06:52:00,50.0,49.0,30.13,WNW,300,2.0,-999.0,95,-99.99,,,-99.99,,2013-09-30 06:52:00,
2013-09-30 07:00:00,50.0,49.0,30.12,NW,320,5.0,-999.0,96,-99.99,,,-99.99,,2013-09-30 07:00:00,
2013-09-30 07:42:00,50.0,49.0,30.12,NW,320,5.0,-999.0,96,-99.99,,,-99.99,,2013-09-30 07:42:00,
2013-09-30 07:52:00,50.0,49.0,30.12,NW,320,5.0,-999.0,96,-99.99,,,-99.99,,2013-09-30 07:52:00,
2013-09-30 08:00:00,49.0,48.0,30.14,NW,310,2.0,-999.0,97,-99.99,,,-99.99,,2013-09-30 08:00:00,
2013-09-30 08:42:00,49.0,48.0,30.14,NW,310,2.0,-999.0,97,-99.99,,,-99.99,,2013-09-30 08:42:00,
2013-09-30 08:52:00,49.0,48.0,30.14,NW,310,2.0,-999.0,97,-99.99,,,-99.99,,2013-09-30 08:52:00,
2013-09-30 09:00:00,47.0,47.0,30.13,NNW,330,3.0,-999.0,98,-99.99,,,-99.99,,2013-09-30 09:00:00,
2013-09-30 09:42:00,47.0,47.0,30.13,NNW,330,3.0,-999.0,98,-99.99,,,-99.99,,2013-09-30 09:42:00,
2013-09-30 09:53:00,47.0,47.0,30.13,NNW,330,3.0,-999.0,98,-99.99,,,-99.99,,2013-09-30 09:53:00,
2013-09-30 10:00:00,47.0,47.0,30.13,North,360,5.0,-999.0,97,-99.99,,,-99.99,,2013-09-30 10:00:00,
2013-09-30 10:42:00,47.0,47.0,30.13,North,360,5.0,-999.0,97,-99.99,,,-99.99,,2013-09-30 10:42:00,
2013-09-30 10:53:00,47.0,47.0,30.13,North,360,5.0,-999.0,97,-99.99,,,-99.99,,2013-09-30 10:53:00,
2013-09-30 11:00:00,49.0,47.0,30.14,NNW,340,5.0,-999.0,93,-99.99,,,-99.99,,2013-09-30 11:00:00,
2013-09-30 11:42:00,49.0,47.0,30.14,NNW,340,5.0,-999.0,93,-99.99,,,-99.99,,2013-09-30 11:42:00,
2013-09-30 11:52:00,49.0,47.0,30.14,NNW,340,5.0,-999.0,93,-99.99,,,-99.99,,2013-09-30 11:52:00,
2013-09-30 12:00:00,51.0,48.0,30.14,NW,310,3.0,-999.0,88,-99.99,,,-99.99,,2013-09-30 12:00:00,
2013-09-30 12:42:00,51.0,48.0,30.14,NW,310,3.0,-999.0,88,-99.99,,,-99.99,,2013-09-30 12:42:00,
2013-09-30 12:52:00,51.0,48.0,30.14,NW,310,3.0,-999.0,88,-99.99,,,-99.99,,2013-09-30 12:52:00,
2013-09-30 13:00:00,54.0,49.0,30.14,NW,310,5.0,-999.0,83,-99.99,,,-99.99,,2013-09-30 13:00:00,
2013-09-30 13:42:00,54.0,49.0,30.14,NW,310,5.0,-999.0,83,-99.99,,,-99.99,,2013-09-30 13:42:00,
2013-09-30 13:52:00,54.0,49.0,30.14,NW,310,5.0,-999.0,83,-99.99,,,-99.99,,2013-09-30 13:52:00,
2013-09-30 14:00:00,56.0,50.0,30.13,NW,310,2.0,-999.0,79,-99.99,,,-99.99,,2013-09-30 14:00:00,
2013-09-30 14:42:00,56.0,50.0,30.13,NW,310,2.0,-999.0,79,-99.99,,,-99.99,,2013-09-30 14:42:00,
2013-09-30 14:52:00,56.0,50.0,30.13,NW,310,2.0,-999.0,79,-99.99,,,-99.99,,2013-09-30 14:52:00,
2013-09-30 15:00:00,62.0,52.0,30.11,North,0,0.0,-999.0,69,-99.99,,,-99.99,,2013-09-30 15:00:00,
2013-09-30 15:45:00,62.0,52.0,30.11,North,0,0.0,-999.0,69,-99.99,,,-99.99,,2013-09-30 15:45:00,
2013-09-30 15:54:00,62.0,52.0,30.11,North,0,0.0,-999.0,69,-99.99,,,-99.99,,2013-09-30 15:54:00,
2013-09-30 16:00:00,63.0,52.0,30.09,ESE,120,7.0,-999.0,68,-99.99,,,-99.99,,2013-09-30 16:00:00,
2013-09-30 16:44:00,63.0,52.0,30.09,ESE,120,7.0,-999.0,68,-99.99,,,-99.99,,2013-09-30 16:44:00,
2013-09-30 16:53:00,63.0,52.0,30.09,ESE,120,7.0,-999.0,68,-99.99,,,-99.99,,2013-09-30 16:53:00,
2013-09-30 17:00:00,63.0,51.0,30.06,ESE,120,8.0,-999.0,64,-99.99,,,-99.99,,2013-09-30 17:00:00,
2013-09-30 17:43:00,63.0,51.0,30.06,ESE,120,8.0,-999.0,64,-99.99,,,-99.99,,2013-09-30 17:43:00,
2013-09-30 17:53:00,63.0,51.0,30.06,ESE,120,8.0,-999.0,64,-99.99,,,-99.99,,2013-09-30 17:53:00,
2013-09-30 18:00:00,62.0,53.0,30.05,ESE,120,7.0,-999.0,73,-99.99,,,-99.99,,2013-09-30 18:00:00,
2013-09-30 18:42:00,62.0,53.0,30.05,ESE,120,7.0,-999.0,73,-99.99,,,-99.99,,2013-09-30 18:42:00,
2013-09-30 18:53:00,62.0,53.0,30.05,ESE,120,7.0,-999.0,73,-99.99,,,-99.99,,2013-09-30 18:53:00,
2013-09-30 19:00:00,62.0,54.0,30.04,ESE,120,7.0,-999.0,74,-99.99,,,-99.99,,2013-09-30 19:00:00,
2013-09-30 19:42:00,62.0,54.0,30.04,ESE,120,7.0,-999.0,74,-99.99,,,-99.99,,2013-09-30 19:42:00,
2013-09-30 19:53:00,62.0,54.0,30.04,ESE,120,7.0,-999.0,74,-99.99,,,-99.99,,2013-09-30 19:53:00,
2013-09-30 20:00:00,63.0,53.0,30.05,SE,140,5.0,-999.0,69,-99.99,,,-99.99,,2013-09-30 20:00:00,
2013-09-30 20:43:00,63.0,53.0,30.05,SE,140,5.0,-999.0,69,-99.99,,,-99.99,,2013-09-30 20:43:00,
2013-09-30 20:52:00,63.0,53.0,30.05,SE,140,5.0,-999.0,69,-99.99,,,-99.99,,2013-09-30 20:52:00,
2013-09-30 21:00:00,61.0,48.0,30.04,SE,140,3.0,-999.0,62,-99.99,,,-99.99,,2013-09-30 21:00:00,
2013-09-30 21:43:00,61.0,48.0,30.04,SE,140,3.0,-999.0,62,-99.99,,,-99.99,,2013-09-30 21:43:00,
2013-09-30 21:54:00,61.0,48.0,30.04,SE,140,3.0,-999.0,62,-99.99,,,-99.99,,2013-09-30 21:54:00,
2013-09-30 22:00:00,60.0,51.0,30.04,ESE,120,3.0,-999.0,72,-99.99,,,-99.99,,2013-09-30 22:00:00,
2013-09-30 22:43:00,60.0,51.0,30.04,ESE,120,3.0,-999.0,72,-99.99,,,-99.99,,2013-09-30 22:43:00,
2013-09-30 22:54:00,60.0,51.0,30.04,ESE,120,3.0,-999.0,72,-99.99,,,-99.99,,2013-09-30 22:54:00,
2013-09-30 23:00:00,60.0,51.0,30.02,ESE,110,5.0,-999.0,72,-99.99,,,-99.99,,2013-09-30 23:00:00,
2013-09-30 23:42:00,60.0,51.0,30.02,ESE,110,5.0,-999.0,72,-99.99,,,-99.99,,2013-09-30 23:42:00,
2013-09-30 23:53:00,60.0,51.0,30.02,ESE,110,5.0,-999.0,72,-99.99,,,-99.99,,2013-09-30 23:53:00,